Time;durP1;ratioP1;P1;durP2;ratioP2;P2;SDS_P1;SDS_P2;PMS_P1;PMS_P2;Temp;Humidity;BMP_temperature;BMP_pressure;BME280_temperature;BME280_humidity;BME280_pressure;Samples;Min_cycle;Max_cycle;Signal;HPM_P1;HPM_P2
2022/04/26 03:36:46;;;;;;;6.45;4.05;;;;;;;5.97;68.46;100870.28;4991364;28;20887;-53
2022/04/26 03:39:15;;;;;;;9.18;4.13;;;;;;;5.96;68.23;100863.41;4999031;28;20345;-56
2022/04/26 03:41:42;;;;;;;9.05;4.50;;;;;;;5.92;68.16;100871.94;5058665;28;20045;-57
2022/04/26 03:44:09;;;;;;;7.38;3.85;;;;;;;5.92;68.40;100870.22;5072180;28;20052;-56
2022/04/26 03:46:36;;;;;;;9.52;4.35;;;;;;;5.92;68.80;100872.78;5058747;28;20067;-55
2022/04/26 03:49:05;;;;;;;10.82;3.75;;;;;;;5.94;68.65;100870.22;5052610;28;20073;-53
2022/04/26 03:51:33;;;;;;;8.52;3.92;;;;;;;5.96;68.57;100865.97;5052764;28;20045;-55
2022/04/26 03:53:59;;;;;;;7.43;3.72;;;;;;;6.00;68.38;100880.59;5054895;28;20191;-54
2022/04/26 03:56:26;;;;;;;6.78;3.30;;;;;;;6.03;67.98;100880.63;5072866;28;20070;-57
2022/04/26 03:58:54;;;;;;;6.85;3.58;;;;;;;6.08;67.68;100878.97;5072952;28;20052;-54
2022/04/26 04:01:23;;;;;;;5.10;2.92;;;;;;;6.12;67.61;100878.16;5072525;28;20106;-55
2022/04/26 04:03:51;;;;;;;6.55;3.50;;;;;;;6.21;67.66;100873.13;5072589;28;20420;-56
2022/04/26 04:06:23;;;;;;;8.35;3.88;;;;;;;6.32;67.29;100881.00;5055728;28;20065;-57
2022/04/26 04:08:51;;;;;;;6.45;3.50;;;;;;;6.40;66.91;100881.94;5052845;28;20053;-56
2022/04/26 04:11:18;;;;;;;6.00;3.75;;;;;;;6.52;66.94;100887.22;5052622;28;20064;-56
2022/04/26 04:13:46;;;;;;;9.15;3.58;;;;;;;6.63;66.45;100884.75;5051967;28;20057;-54
2022/04/26 04:16:14;;;;;;;9.43;4.57;;;;;;;6.78;66.27;100884.94;5052783;28;20053;-53
2022/04/26 04:21:27;;;;;;;7.23;4.27;;;;;;;7.09;65.36;100895.50;5052380;28;20064;-53
2022/04/26 04:23:53;;;;;;;7.15;4.28;;;;;;;7.26;64.50;100899.06;5052996;28;20064;-53
2022/04/26 04:26:21;;;;;;;9.25;4.35;;;;;;;7.43;64.34;100897.50;5052372;28;20067;-54
2022/04/26 04:28:49;;;;;;;8.43;4.00;;;;;;;7.64;63.73;100891.59;5045859;28;20053;-54
2022/04/26 04:31:17;;;;;;;8.00;4.00;;;;;;;7.82;63.09;100901.19;5032413;28;20053;-56
2022/04/26 04:33:45;;;;;;;7.78;4.15;;;;;;;8.01;63.06;100900.44;5032362;28;20060;-57
2022/04/26 04:36:13;;;;;;;9.88;5.25;;;;;;;8.21;62.67;100906.53;5032787;28;20053;-56
2022/04/26 04:38:40;;;;;;;8.90;4.72;;;;;;;8.41;61.65;100904.09;5032359;28;20060;-56
2022/04/26 04:41:08;;;;;;;7.65;4.82;;;;;;;8.63;61.01;100904.13;5043309;28;20052;-56
2022/04/26 04:43:35;;;;;;;6.82;4.10;;;;;;;8.79;61.31;100914.50;5055684;28;20107;-56
2022/04/26 04:46:03;;;;;;;8.73;4.28;;;;;;;8.95;60.20;100911.97;5055822;28;20052;-53
2022/04/26 04:48:30;;;;;;;7.22;4.15;;;;;;;9.12;59.85;100916.28;5039543;28;20057;-53
2022/04/26 04:50:57;;;;;;;7.88;4.10;;;;;;;9.29;59.54;100913.69;5035758;28;20053;-53
2022/04/26 04:53:25;;;;;;;9.48;4.25;;;;;;;9.49;59.06;100917.16;5035955;28;20045;-56
2022/04/26 04:55:54;;;;;;;7.47;4.03;;;;;;;9.70;58.60;100921.41;5035743;28;20061;-53
2022/04/26 04:58:20;;;;;;;6.93;3.80;;;;;;;9.90;57.33;100913.63;5035678;28;20057;-54
2022/04/26 05:00:49;;;;;;;8.10;3.63;;;;;;;10.15;57.08;100918.72;5035575;28;20423;-54
2022/04/26 05:03:16;;;;;;;8.23;3.67;;;;;;;10.34;56.11;100916.06;5035418;28;20049;-53
2022/04/26 05:05:42;;;;;;;8.57;3.88;;;;;;;10.54;55.52;100916.00;5035370;28;20053;-55
2022/04/26 05:08:10;;;;;;;7.45;3.55;;;;;;;10.73;55.10;100909.84;5035484;28;20064;-56
2022/04/26 05:10:36;;;;;;;8.20;3.60;;;;;;;10.95;54.35;100920.09;5048260;28;20048;-53
2022/04/26 05:13:04;;;;;;;6.28;3.33;;;;;;;11.14;53.51;100913.03;5055154;28;20099;-53
2022/04/26 05:15:32;;;;;;;7.78;3.22;;;;;;;11.34;52.83;100911.97;5055242;28;20056;-54
2022/04/26 05:18:00;;;;;;;11.45;3.63;;;;;;;11.52;52.43;100913.56;5055025;28;20533;-52
2022/04/26 05:20:28;;;;;;;8.25;3.92;;;;;;;11.70;52.26;100917.72;5055241;28;20049;-53
2022/04/26 05:25:41;;;;;;;6.60;3.30;;;;;;;12.13;50.85;100914.69;5075141;28;20060;-53
2022/04/26 05:28:10;;;;;;;4.63;2.80;;;;;;;12.36;49.78;100911.81;5071490;28;20053;-53
2022/04/26 05:30:36;;;;;;;6.07;2.90;;;;;;;12.52;49.35;100922.00;5055184;28;20112;-56
2022/04/26 05:33:03;;;;;;;6.03;2.90;;;;;;;12.70;48.49;100920.91;5072761;28;20055;-53
2022/04/26 05:35:30;;;;;;;8.13;3.03;;;;;;;12.88;48.39;100927.56;5074937;28;20224;-56
2022/04/26 05:37:58;;;;;;;5.30;2.70;;;;;;;13.05;47.87;100933.41;5074827;28;20052;-56
2022/04/26 05:40:26;;;;;;;5.13;3.00;;;;;;;13.23;47.44;100933.13;5074549;28;20392;-56
2022/04/26 05:42:56;;;;;;;5.75;3.08;;;;;;;13.39;46.87;100928.53;5074724;28;20056;-53
2022/04/26 05:45:27;;;;;;;8.02;3.00;;;;;;;13.59;46.77;100925.63;5074650;28;20084;-55
2022/04/26 05:47:55;;;;;;;7.55;2.88;;;;;;;13.76;46.27;100923.56;5063736;28;20064;-55
2022/04/26 05:50:22;;;;;;;5.43;2.80;;;;;;;13.92;45.62;100925.88;5054543;28;20076;-53
2022/04/26 05:52:50;;;;;;;5.93;2.85;;;;;;;14.08;45.08;100929.91;5054481;28;20064;-54
2022/04/26 05:55:18;;;;;;;8.13;2.75;;;;;;;14.23;44.93;100928.75;5054494;28;20061;-53
2022/04/26 05:57:45;;;;;;;7.32;3.20;;;;;;;14.41;44.57;100929.22;5054593;28;20053;-53
2022/04/26 06:00:22;;;;;;;4.65;2.92;;;;;;;14.60;43.87;100928.88;5054610;28;20060;-55
2022/04/26 06:02:51;;;;;;;6.22;3.28;;;;;;;14.75;43.50;100928.53;5053942;28;20477;-56
2022/04/26 06:05:19;;;;;;;5.65;3.05;;;;;;;14.86;43.20;100931.75;5053741;28;20063;-53
2022/04/26 06:07:46;;;;;;;4.72;2.50;;;;;;;14.99;43.01;100938.41;5069677;28;20056;-56
2022/04/26 06:10:13;;;;;;;8.35;2.80;;;;;;;15.17;42.56;100931.06;5074395;28;20067;-59
2022/04/26 06:12:42;;;;;;;6.45;2.95;;;;;;;15.31;42.38;100928.97;5071922;28;20044;-58
2022/04/26 06:15:10;;;;;;;6.50;2.88;;;;;;;15.48;42.24;100939.84;5073256;28;20446;-56
2022/04/26 06:17:36;;;;;;;5.22;2.00;;;;;;;15.61;41.53;100937.84;5073317;28;20127;-54
2022/04/26 06:20:05;;;;;;;2.85;1.52;;;;;;;15.75;40.21;100939.19;5070714;28;20477;-56
2022/04/26 06:22:31;;;;;;;5.43;1.63;;;;;;;15.96;39.43;100944.72;5068324;28;20385;-56
2022/04/26 06:24:58;;;;;;;2.70;1.40;;;;;;;16.10;39.42;100937.38;5073161;28;20049;-57
2022/04/26 06:27:24;;;;;;;2.80;1.55;;;;;;;16.22;38.55;100931.81;5073245;28;20048;-56
2022/04/26 06:29:51;;;;;;;4.43;1.85;;;;;;;16.35;38.18;100933.16;5070274;28;20053;-57
2022/04/26 06:32:17;;;;;;;3.17;1.55;;;;;;;16.47;38.05;100936.31;5072780;28;20442;-56
2022/04/26 06:34:43;;;;;;;2.88;1.90;;;;;;;16.57;37.50;100937.75;5073232;28;20056;-60
2022/04/26 06:37:13;;;;;;;4.25;1.60;;;;;;;16.72;37.71;100937.38;5071678;28;20059;-56
2022/04/26 06:39:39;;;;;;;4.47;1.50;;;;;;;16.88;37.06;100938.59;5072734;28;20080;-56
2022/04/26 06:42:06;;;;;;;3.78;1.60;;;;;;;17.04;36.63;100938.97;5072486;28;20048;-59
2022/04/26 06:44:33;;;;;;;2.53;1.42;;;;;;;17.22;36.24;100945.41;5072518;28;20055;-60
2022/04/26 06:46:59;;;;;;;2.95;1.63;;;;;;;17.34;35.55;100940.63;5073610;28;20097;-62
2022/04/26 06:49:26;;;;;;;2.90;1.50;;;;;;;17.50;35.06;100947.97;5070117;28;20040;-61
2022/04/26 06:51:52;;;;;;;3.10;1.42;;;;;;;17.63;34.41;100947.50;5072230;28;20143;-63
2022/04/26 06:54:20;;;;;;;3.38;1.50;;;;;;;17.63;33.06;100944.88;5072270;28;20055;-59
2022/04/26 06:56:46;;;;;;;2.50;1.38;;;;;;;17.65;33.36;100937.81;5070846;28;20048;-59
2022/04/26 06:59:13;;;;;;;3.95;1.65;;;;;;;17.72;32.33;100942.91;5072243;28;20044;-59
2022/04/26 07:01:40;;;;;;;2.92;1.40;;;;;;;17.64;32.31;100951.81;5071626;28;20474;-59
2022/04/26 07:04:07;;;;;;;1.75;1.00;;;;;;;17.71;32.31;100946.44;5071789;28;20135;-58
2022/04/26 07:06:34;;;;;;;2.78;1.05;;;;;;;17.74;32.76;100941.94;5072261;28;20075;-59
2022/04/26 07:09:01;;;;;;;2.55;1.20;;;;;;;17.89;32.08;100956.28;5072213;28;20048;-58
2022/04/26 07:11:29;;;;;;;2.70;1.20;;;;;;;18.04;31.34;100955.72;5072657;28;20131;-58
2022/04/26 07:13:57;;;;;;;2.85;1.10;;;;;;;18.19;31.04;100963.03;5071807;28;20044;-60
2022/04/26 07:16:23;;;;;;;2.13;1.00;;;;;;;18.33;30.64;100957.31;5071936;28;20439;-59
2022/04/26 07:18:50;;;;;;;2.33;0.88;;;;;;;18.45;30.59;100956.00;5071912;28;20425;-60
2022/04/26 07:21:17;;;;;;;3.38;1.00;;;;;;;18.58;30.35;100962.50;5069172;28;20056;-60
2022/04/26 07:23:43;;;;;;;1.27;0.75;;;;;;;18.68;29.72;100961.25;5072494;28;20050;-58
2022/04/26 07:26:09;;;;;;;1.45;0.70;;;;;;;18.77;29.86;100968.81;5072807;28;20064;-61
2022/04/26 07:28:37;;;;;;;2.25;0.90;;;;;;;18.92;29.47;100973.47;5072334;28;20342;-60
2022/04/26 07:31:04;;;;;;;1.55;0.90;;;;;;;19.06;28.99;100979.94;5071293;28;20491;-61
2022/04/26 07:36:15;;;;;;;3.03;1.13;;;;;;;19.36;27.67;100983.13;5071076;28;20094;-58
2022/04/26 07:38:41;;;;;;;2.03;0.73;;;;;;;19.48;27.64;100978.22;5071653;28;20064;-59
2022/04/26 07:41:09;;;;;;;1.88;0.80;;;;;;;19.63;27.11;100986.44;5072001;28;20071;-59
2022/04/26 07:43:37;;;;;;;1.55;0.82;;;;;;;19.71;26.78;100989.59;5071913;28;20072;-59
2022/04/26 07:46:04;;;;;;;2.53;1.08;;;;;;;19.74;25.69;100999.97;5071189;28;20049;-60
2022/04/26 07:48:31;;;;;;;1.77;0.80;;;;;;;19.68;25.51;100995.84;5071042;28;20045;-59
2022/04/26 07:50:57;;;;;;;2.15;0.88;;;;;;;19.72;26.10;100997.41;5067634;28;20056;-60
2022/04/26 07:53:25;;;;;;;2.35;1.20;;;;;;;19.65;24.98;101008.25;5072123;28;20056;-57
2022/04/26 07:55:51;;;;;;;1.20;0.70;;;;;;;19.54;25.59;101012.19;5072085;28;20063;-59
2022/04/26 07:58:18;;;;;;;2.13;1.10;;;;;;;19.62;25.99;101008.38;5072146;28;20056;-60
2022/04/26 08:00:45;;;;;;;1.50;0.85;;;;;;;19.64;26.03;101011.81;5072286;28;20044;-60
2022/04/26 08:03:13;;;;;;;1.55;0.88;;;;;;;19.63;25.63;101007.47;5072441;28;20052;-60
2022/04/26 08:05:40;;;;;;;2.55;0.90;;;;;;;19.80;25.25;101007.63;5061525;28;20100;-59
2022/04/26 08:08:07;;;;;;;1.65;1.13;;;;;;;19.88;24.72;101010.78;5059329;28;20055;-59
2022/04/26 08:10:35;;;;;;;2.55;1.63;;;;;;;19.79;24.80;101013.81;5057359;28;20048;-58
2022/04/26 08:13:01;;;;;;;6.45;1.55;;;;;;;19.73;24.80;101014.03;5056217;28;20053;-60
2022/04/26 08:15:28;;;;;;;4.47;1.77;;;;;;;19.73;24.32;101014.03;5059874;28;20045;-59
2022/04/26 08:17:55;;;;;;;8.73;1.83;;;;;;;19.69;24.42;101017.72;5069857;28;20064;-57
2022/04/26 08:20:24;;;;;;;3.15;1.10;;;;;;;19.63;24.31;101020.63;5064776;28;20055;-57
2022/04/26 08:22:51;;;;;;;2.72;1.38;;;;;;;19.67;24.96;101024.81;5073942;28;20052;-59
2022/04/26 08:28:04;;;;;;;4.38;1.52;;;;;;;19.59;24.13;101021.66;5029585;28;20447;-53
2022/04/26 08:30:31;;;;;;;4.70;1.60;;;;;;;19.48;24.28;101025.56;5073562;28;20052;-57
2022/04/26 08:32:59;;;;;;;3.10;1.58;;;;;;;19.45;24.45;101020.41;5075172;28;20477;-54
2022/04/26 08:35:28;;;;;;;7.10;1.42;;;;;;;19.53;24.62;101028.88;5075153;28;20044;-59
2022/04/26 08:37:54;;;;;;;3.97;1.23;;;;;;;19.58;24.28;101022.56;5075081;28;20060;-58
2022/04/26 08:40:21;;;;;;;2.78;1.30;;;;;;;19.56;24.21;101024.41;5072778;28;20118;-60
2022/04/26 08:42:50;;;;;;;3.15;1.30;;;;;;;19.62;24.54;101026.78;5069713;28;20044;-59
2022/04/26 08:45:18;;;;;;;5.57;1.48;;;;;;;19.68;24.01;101037.06;5073980;28;20048;-59
2022/04/26 08:53:32;;;;;;;2.05;1.02;;;;;;;19.67;24.18;101030.94;5011482;28;20513;-59
2022/04/26 08:56:01;;;;;;;3.15;1.10;;;;;;;19.84;23.96;101032.91;5010773;28;20365;-60
2022/04/26 08:58:31;;;;;;;3.70;1.10;;;;;;;20.02;24.21;101042.63;5038515;28;20037;-62
2022/04/26 09:01:10;;;;;;;1.13;0.70;;;;;;;20.20;23.36;101038.34;5077354;28;20373;-62
2022/04/26 09:03:38;;;;;;;1.73;0.98;;;;;;;20.30;23.38;101041.47;5067927;28;20123;-60
2022/04/26 09:06:09;;;;;;;1.52;1.00;;;;;;;20.40;22.97;101041.03;5066578;28;20359;-58
2022/04/26 09:08:36;;;;;;;2.78;1.40;;;;;;;20.47;22.87;101038.97;5072883;28;20059;-61
2022/04/26 09:11:04;;;;;;;3.75;1.10;;;;;;;20.52;22.69;101039.63;5074931;28;20047;-63
2022/04/26 09:13:39;;;;;;;1.67;1.00;;;;;;;20.58;22.61;101041.13;5063672;28;20650;-59
2022/04/26 09:16:16;;;;;;;4.65;1.13;;;;;;;20.65;22.46;101038.13;5048838;28;20112;-60
2022/04/26 09:18:52;;;;;;;4.13;1.50;;;;;;;20.71;22.19;101051.03;5050338;28;20041;-60
2022/04/26 09:21:20;;;;;;;2.75;1.17;;;;;;;20.69;23.24;101049.38;5054428;28;20076;-59
2022/04/26 09:23:48;;;;;;;3.58;1.90;;;;;;;20.68;23.15;101042.41;5054223;28;20130;-61
2022/04/26 09:26:16;;;;;;;5.35;1.55;;;;;;;20.51;22.98;101045.81;5053974;28;20067;-60
2022/04/26 09:28:44;;;;;;;1.80;1.33;;;;;;;20.33;22.83;101049.22;5054184;28;20055;-59
2022/04/26 09:31:19;;;;;;;5.43;1.10;;;;;;;20.45;22.46;101051.34;5054577;28;20068;-58
2022/04/26 09:33:51;;;;;;;2.67;1.13;;;;;;;20.57;22.57;101050.81;5054582;28;20092;-59
2022/04/26 09:36:21;;;;;;;4.53;1.48;;;;;;;20.60;22.65;101048.03;5054460;28;20108;-62
2022/04/26 09:38:54;;;;;;;7.25;1.70;;;;;;;20.64;22.66;101046.97;5051215;28;20465;-61
2022/04/26 09:41:21;;;;;;;4.18;1.60;;;;;;;20.70;22.40;101051.09;5054204;28;20053;-62
2022/04/26 09:44:06;;;;;;;2.83;1.55;;;;;;;20.57;22.46;101045.53;5054287;28;20053;-60
2022/04/26 09:46:50;;;;;;;3.50;1.95;;;;;;;20.41;23.06;101041.88;5042612;28;20084;-58
2022/04/26 09:49:19;;;;;;;4.15;1.90;;;;;;;20.30;23.02;101046.72;5053096;28;20052;-61
2022/04/26 09:51:47;;;;;;;5.97;1.88;;;;;;;20.18;22.74;101053.34;5053810;28;20493;-62
2022/04/26 09:54:14;;;;;;;7.50;1.30;;;;;;;20.11;22.43;101049.28;5044682;28;20525;-62
2022/04/26 09:56:44;;;;;;;6.43;1.50;;;;;;;19.86;22.69;101052.09;5052872;28;20175;-61
2022/04/26 09:59:13;;;;;;;4.38;1.88;;;;;;;19.54;22.22;101053.41;5053517;28;20041;-59
2022/04/26 10:01:42;;;;;;;2.33;1.20;;;;;;;19.39;22.46;101040.84;5053833;28;20071;-58
2022/04/26 10:04:10;;;;;;;2.97;1.30;;;;;;;19.42;22.78;101056.50;5050485;28;20049;-60
2022/04/26 10:06:39;;;;;;;2.13;1.20;;;;;;;19.53;22.69;101047.28;5052072;28;20449;-59
2022/04/26 10:09:09;;;;;;;4.68;1.67;;;;;;;19.53;22.21;101052.53;5053601;28;20041;-59
2022/04/26 10:11:37;;;;;;;5.47;1.95;;;;;;;19.38;23.07;101055.75;5051636;28;20048;-58
2022/04/26 10:14:06;;;;;;;4.10;1.20;;;;;;;19.05;23.17;101051.81;5041721;28;20052;-62
2022/04/26 10:16:34;;;;;;;3.95;1.20;;;;;;;19.00;23.52;101059.00;5048796;28;20076;-62
2022/04/26 10:19:07;;;;;;;2.17;1.00;;;;;;;18.94;23.52;101048.72;5066697;28;20052;-61
2022/04/26 10:21:49;;;;;;;3.47;1.75;;;;;;;19.05;23.00;101057.06;5063437;28;20049;-60
2022/04/26 10:24:19;;;;;;;3.13;1.20;;;;;;;19.18;23.72;101053.88;5062209;28;20088;-60
2022/04/26 10:26:46;;;;;;;6.13;1.13;;;;;;;19.32;23.19;101055.16;5067690;28;20060;-60
2022/04/26 10:29:17;;;;;;;6.63;1.30;;;;;;;19.17;23.42;101057.44;5061679;28;20053;-62
2022/04/26 10:31:45;;;;;;;2.97;1.00;;;;;;;19.11;23.92;101062.06;5055921;28;20370;-60
2022/04/26 10:34:26;;;;;;;3.75;1.25;;;;;;;18.95;23.23;101060.94;5058186;28;20072;-61
2022/04/26 10:36:53;;;;;;;4.32;1.30;;;;;;;18.83;24.01;101057.03;5035469;28;20060;-61
2022/04/26 10:39:36;;;;;;;2.53;1.00;;;;;;;18.90;23.94;101048.84;5054117;28;20048;-61
2022/04/26 10:42:07;;;;;;;3.08;1.40;;;;;;;18.92;23.92;101047.03;5041934;28;20054;-62
2022/04/26 10:44:40;;;;;;;2.00;1.05;;;;;;;18.97;22.89;101064.38;5053488;28;20063;-61
2022/04/26 10:47:29;;;;;;;4.75;1.50;;;;;;;18.74;23.59;101052.97;5063606;28;20048;-55
2022/04/26 10:49:58;;;;;;;4.25;1.30;;;;;;;18.72;23.59;101051.28;5060196;28;20059;-61
2022/04/26 10:52:43;;;;;;;2.58;1.02;;;;;;;18.57;23.56;101055.28;5048808;28;20051;-60
2022/04/26 10:55:15;;;;;;;7.13;1.50;;;;;;;18.32;24.12;101054.47;5046216;28;20041;-60
2022/04/26 10:57:44;;;;;;;6.05;1.27;;;;;;;18.29;24.20;101061.53;5044513;28;20057;-61
2022/04/26 11:00:13;;;;;;;3.83;1.42;;;;;;;18.25;24.21;101046.81;5065647;28;20052;-61
2022/04/26 11:02:41;;;;;;;3.60;1.50;;;;;;;18.24;24.62;101052.13;5042554;28;20068;-62
2022/04/26 11:05:10;;;;;;;2.08;1.20;;;;;;;18.33;24.30;101057.03;5059451;28;20123;-63
2022/04/26 11:07:38;;;;;;;11.20;1.95;;;;;;;18.35;24.52;101049.13;5052297;28;20072;-62
2022/04/26 11:10:07;;;;;;;4.78;1.25;;;;;;;18.41;24.18;101043.66;5061416;28;20157;-62
2022/04/26 11:12:36;;;;;;;2.95;1.40;;;;;;;18.33;23.77;101051.78;5070805;28;20054;-60
2022/04/26 11:15:06;;;;;;;3.58;1.35;;;;;;;18.19;24.06;101065.38;5065133;28;20633;-61
2022/04/26 11:17:34;;;;;;;6.60;1.13;;;;;;;18.10;24.16;101060.44;5071764;28;20108;-61
2022/04/26 11:20:01;;;;;;;2.35;1.10;;;;;;;17.94;24.11;101054.00;5072535;28;20056;-62
2022/04/26 11:22:29;;;;;;;6.90;1.60;;;;;;;17.83;24.12;101064.88;5072104;28;20044;-62
2022/04/26 11:28:02;;;;;;;5.80;1.20;;;;;;;17.55;25.07;101064.84;5072120;28;20059;-63
2022/04/26 11:30:31;;;;;;;4.22;1.48;;;;;;;17.67;25.08;101072.34;5072259;28;20056;-62
2022/04/26 11:32:59;;;;;;;3.65;1.30;;;;;;;17.71;25.24;101067.03;5072551;28;20055;-63
2022/04/26 11:35:25;;;;;;;4.22;0.95;;;;;;;17.79;25.31;101070.25;5072625;28;20048;-63
2022/04/26 11:37:54;;;;;;;5.10;1.05;;;;;;;17.79;25.01;101067.63;5072100;28;20147;-62
2022/04/26 11:40:30;;;;;;;2.78;1.60;;;;;;;17.90;24.63;101062.88;5076238;28;20052;-63
2022/04/26 11:43:06;;;;;;;3.33;1.40;;;;;;;17.97;25.17;101074.88;5057175;28;20044;-60
2022/04/26 11:45:34;;;;;;;4.82;1.48;;;;;;;17.90;25.15;101078.63;5072241;28;20056;-62
2022/04/26 11:48:01;;;;;;;4.20;1.50;;;;;;;17.82;24.89;101075.41;5070319;28;20519;-62
2022/04/26 11:50:29;;;;;;;4.00;1.48;;;;;;;17.69;25.23;101076.69;5074146;28;20131;-60
2022/04/26 11:53:01;;;;;;;6.50;1.40;;;;;;;17.55;24.82;101072.72;5075761;28;20496;-60
2022/04/26 11:55:29;;;;;;;2.95;1.20;;;;;;;17.52;25.35;101072.81;5074631;28;20052;-58
2022/04/26 11:58:09;;;;;;;2.58;1.55;;;;;;;17.55;25.85;101056.97;5076288;28;20079;-60
2022/04/26 12:00:36;;;;;;;2.88;1.40;;;;;;;17.57;25.91;101065.66;5075900;28;20154;-60
2022/04/26 12:03:03;;;;;;;5.88;1.50;;;;;;;17.59;25.83;101068.22;5075179;28;20049;-62
2022/04/26 12:05:35;;;;;;;3.15;1.50;;;;;;;17.60;26.08;101060.31;5076119;28;20083;-59
2022/04/26 12:08:02;;;;;;;2.65;1.17;;;;;;;17.64;26.06;101061.94;5076020;28;20053;-59
2022/04/26 12:10:32;;;;;;;4.10;1.50;;;;;;;17.60;25.91;101065.56;5070383;28;20076;-58
2022/04/26 12:13:05;;;;;;;3.50;1.15;;;;;;;17.59;26.19;101070.84;5063769;28;20053;-60
2022/04/26 12:15:34;;;;;;;2.17;1.35;;;;;;;17.53;26.18;101064.03;5069977;28;20060;-59
2022/04/26 12:18:13;;;;;;;3.67;1.42;;;;;;;17.37;26.36;101057.56;5068914;28;20080;-61
2022/04/26 12:20:56;;;;;;;10.35;1.73;;;;;;;17.33;26.61;101061.19;5059271;28;20072;-61
2022/04/26 12:23:23;;;;;;;4.20;1.48;;;;;;;17.23;26.52;101062.38;5066655;28;20049;-61
2022/04/26 12:25:57;;;;;;;2.35;1.50;;;;;;;17.10;26.54;101053.16;5064135;28;20049;-60
2022/04/26 12:28:24;;;;;;;3.28;1.30;;;;;;;17.06;26.95;101056.78;5071707;28;20469;-60
2022/04/26 12:30:52;;;;;;;3.78;1.58;;;;;;;17.02;26.54;101062.09;5049359;28;20056;-62
2022/04/26 12:33:26;;;;;;;5.45;1.15;;;;;;;16.99;26.49;101067.44;5062436;28;20060;-60
2022/04/26 12:36:01;;;;;;;2.95;1.10;;;;;;;17.01;27.02;101060.38;5062509;28;20064;-60
2022/04/26 12:38:28;;;;;;;5.53;1.73;;;;;;;16.98;26.85;101063.09;5054845;28;20462;-60
2022/04/26 12:41:02;;;;;;;4.63;1.17;;;;;;;17.00;26.52;101063.91;5047737;28;20479;-59
2022/04/26 12:43:30;;;;;;;8.63;1.33;;;;;;;16.92;26.92;101076.38;5038637;28;20096;-64
2022/04/26 12:46:00;;;;;;;4.28;1.38;;;;;;;16.89;26.72;101054.66;5035609;28;20049;-64
2022/04/26 12:51:18;;;;;;;6.35;1.00;;;;;;;16.79;27.19;101063.69;5046729;28;20092;-66
2022/04/26 12:53:46;;;;;;;5.35;1.60;;;;;;;16.82;27.36;101080.16;5050764;28;20050;-61
2022/04/26 12:56:13;;;;;;;4.68;1.00;;;;;;;16.78;26.88;101068.06;5058231;28;20053;-62
2022/04/26 12:58:42;;;;;;;5.50;1.48;;;;;;;16.74;27.27;101063.81;5068964;28;20048;-61
2022/04/26 13:01:11;;;;;;;3.60;1.20;;;;;;;16.67;27.43;101064.91;5058220;28;20128;-61
2022/04/26 13:03:38;;;;;;;4.40;1.50;;;;;;;16.59;27.68;101061.56;5048809;28;20052;-61
2022/04/26 13:06:08;;;;;;;3.92;1.58;;;;;;;16.62;28.03;101064.09;5044904;28;20056;-63
2022/04/26 13:08:38;;;;;;;5.20;1.77;;;;;;;16.58;28.13;101065.09;5056267;28;20049;-61
2022/04/26 13:11:06;;;;;;;3.55;1.20;;;;;;;16.54;28.12;101068.69;5068998;28;20049;-61
2022/04/26 13:13:33;;;;;;;4.85;1.58;;;;;;;16.59;28.24;101064.19;5064045;28;20062;-61
2022/04/26 13:16:00;;;;;;;2.50;1.40;;;;;;;16.69;28.37;101063.97;5074546;28;20052;-61
2022/04/26 13:18:29;;;;;;;4.55;1.30;;;;;;;16.79;27.68;101059.31;5074613;28;20063;-61
2022/04/26 13:20:56;;;;;;;5.85;1.80;;;;;;;16.85;27.21;101060.91;5074825;28;20056;-61
2022/04/26 13:23:25;;;;;;;5.88;1.60;;;;;;;16.76;27.38;101059.41;5074362;28;20052;-62
2022/04/26 13:25:53;;;;;;;3.03;1.30;;;;;;;16.83;27.21;101060.94;5070522;28;20535;-61
2022/04/26 13:28:19;;;;;;;6.10;1.40;;;;;;;16.87;27.49;101062.56;5079420;28;20056;-63
2022/04/26 13:30:46;;;;;;;2.63;1.40;;;;;;;16.91;27.53;101058.94;5074707;28;20114;-63
2022/04/26 13:33:13;;;;;;;3.15;1.50;;;;;;;16.98;27.88;101060.47;5074500;28;20110;-63
2022/04/26 13:35:41;;;;;;;1.75;1.10;;;;;;;16.99;27.73;101061.34;5074617;28;20052;-63
2022/04/26 13:38:09;;;;;;;4.03;1.40;;;;;;;16.96;27.72;101067.53;5073543;28;20048;-62
2022/04/26 13:40:37;;;;;;;29.80;2.40;;;;;;;16.98;27.90;101060.47;5072842;28;20461;-63
2022/04/26 13:43:04;;;;;;;3.22;1.33;;;;;;;16.93;27.91;101067.63;5074218;28;20048;-63
2022/04/26 13:45:31;;;;;;;4.22;1.25;;;;;;;16.91;28.23;101068.56;5073980;28;20440;-58
2022/04/26 13:47:58;;;;;;;5.22;1.27;;;;;;;16.91;28.31;101074.66;5076468;28;20053;-59
2022/04/26 13:50:24;;;;;;;3.22;1.10;;;;;;;16.89;28.21;101076.47;5074146;28;20373;-60
2022/04/26 13:52:52;;;;;;;9.38;1.98;;;;;;;16.88;28.55;101074.75;5073156;28;20157;-58
2022/04/26 13:55:18;;;;;;;5.88;1.50;;;;;;;16.92;28.31;101073.75;5073638;28;20059;-58
2022/04/26 13:57:48;;;;;;;6.00;2.80;;;;;;;16.80;28.30;101076.75;5074014;28;20055;-58
2022/04/26 14:00:16;;;;;;;6.22;2.22;;;;;;;16.80;28.73;101092.44;5073374;28;20049;-58
2022/04/26 14:02:45;;;;;;;3.85;1.80;;;;;;;16.77;28.65;101082.06;5073743;28;20150;-58
2022/04/26 14:05:11;;;;;;;4.25;1.80;;;;;;;16.57;28.31;101085.19;5073385;28;20040;-59
2022/04/26 14:07:38;;;;;;;4.38;1.70;;;;;;;16.56;28.71;101083.47;5073350;28;20473;-63
2022/04/26 14:10:08;;;;;;;4.97;1.40;;;;;;;16.48;28.35;101095.03;5073563;28;20048;-63
2022/04/26 14:12:36;;;;;;;4.38;2.13;;;;;;;16.51;28.46;101093.19;5062452;28;20057;-63
2022/04/26 14:23:16;;;;;;;2.47;1.40;;;;;;;16.75;28.72;101096.94;5073604;28;20093;-58
2022/04/26 14:25:44;;;;;;;3.92;1.63;;;;;;;16.68;28.53;101098.03;5069922;28;20381;-61
2022/04/26 14:28:10;;;;;;;3.55;1.23;;;;;;;16.64;28.90;101091.09;5073777;28;20053;-60
2022/04/26 14:30:37;;;;;;;2.63;1.70;;;;;;;16.63;28.93;101097.22;5073067;28;20060;-60
2022/04/26 14:33:04;;;;;;;4.68;1.60;;;;;;;16.64;29.22;101093.72;5069635;28;20059;-61
2022/04/26 14:35:32;;;;;;;4.20;1.80;;;;;;;16.58;29.41;101091.28;5061716;28;20048;-59
2022/04/26 14:37:58;;;;;;;5.15;2.20;;;;;;;16.47;29.52;101094.19;5071849;28;20063;-59
2022/04/26 14:40:25;;;;;;;5.57;1.85;;;;;;;16.38;30.16;101092.69;5071345;28;20052;-60
2022/04/26 14:42:54;;;;;;;7.82;2.22;;;;;;;16.32;29.82;101089.38;5054507;28;20056;-59
2022/04/26 14:45:21;;;;;;;17.77;2.80;;;;;;;16.13;29.41;101104.69;5059689;28;20044;-60
2022/04/26 14:47:48;;;;;;;4.88;1.45;;;;;;;15.88;29.33;101098.31;5071220;28;20517;-63
2022/04/26 14:50:17;;;;;;;3.47;1.20;;;;;;;15.63;30.09;101104.16;5072680;28;20094;-60
2022/04/26 14:52:43;;;;;;;2.78;1.27;;;;;;;15.58;30.39;101107.72;5072932;28;20733;-60
2022/04/26 14:55:10;;;;;;;5.70;1.52;;;;;;;15.60;30.76;101101.56;5072897;28;20055;-60
2022/04/26 14:57:37;;;;;;;3.55;1.35;;;;;;;15.55;30.40;101100.78;5072994;28;20194;-61
2022/04/26 15:00:07;;;;;;;3.70;1.42;;;;;;;15.59;30.61;101112.91;5066941;28;20052;-61
2022/04/26 15:02:38;;;;;;;4.75;1.38;;;;;;;15.64;30.39;101111.09;5072799;28;20056;-61
2022/04/26 15:05:07;;;;;;;4.45;1.48;;;;;;;15.60;30.41;101109.41;5072903;28;20067;-61
2022/04/26 15:09:42;;;;;;;4.13;1.80;;;;;;;15.42;30.69;101113.28;5073109;28;20072;-60
2022/04/26 15:10:19;;;;;;;2.85;1.60;;;;;;;15.33;31.37;101115.22;5059219;28;20070;-61
2022/04/26 15:18:17;;;;;;;7.47;2.10;;;;;;;14.89;31.79;101127.44;5068571;28;20496;-61
2022/04/26 15:20:50;;;;;;;3.50;1.73;;;;;;;14.79;32.03;101124.16;5061138;28;20384;-61
2022/04/26 15:23:17;;;;;;;3.75;1.60;;;;;;;14.64;32.28;101131.44;5062346;28;20060;-60
2022/04/26 15:25:48;;;;;;;6.45;1.73;;;;;;;14.57;32.49;101133.28;5056386;28;20127;-61
2022/04/26 15:28:15;;;;;;;5.07;1.23;;;;;;;14.48;32.33;101134.28;5055077;28;20381;-61
2022/04/26 15:30:43;;;;;;;5.00;2.00;;;;;;;14.46;32.95;101136.06;5072317;28;20056;-61
2022/04/26 15:33:10;;;;;;;10.43;3.15;;;;;;;14.41;33.24;101137.00;5061507;28;20041;-61
2022/04/26 15:35:38;;;;;;;8.93;2.72;;;;;;;14.32;33.63;101138.03;5066217;28;20136;-61
2022/04/26 15:38:05;;;;;;;3.72;1.95;;;;;;;14.24;33.58;101132.09;5072712;28;20053;-61
2022/04/26 15:40:32;;;;;;;9.63;2.35;;;;;;;14.22;33.78;101136.47;5072755;28;20044;-61
2022/04/26 15:42:59;;;;;;;6.93;2.08;;;;;;;14.23;33.82;101132.97;5072922;28;20048;-61
2022/04/26 15:45:25;;;;;;;4.28;1.67;;;;;;;14.20;33.96;101135.66;5066152;28;20079;-61